sensor_id;sensor_type;location;lat;lon;timestamp;temperature;humidity
13794;DHT22;31160;49.500;7.772;2023-01-09T00:00:47;7.90;99.90
13794;DHT22;31160;49.500;7.772;2023-01-09T00:03:13;8.00;99.90
13794;DHT22;31160;49.500;7.772;2023-01-09T00:05:40;7.90;99.90
13794;DHT22;31160;49.500;7.772;2023-01-09T00:08:07;8.00;99.90
13794;DHT22;31160;49.500;7.772;2023-01-09T00:10:34;8.10;99.90
13794;DHT22;31160;49.500;7.772;2023-01-09T00:13:01;8.00;99.90
13794;DHT22;31160;49.500;7.772;2023-01-09T00:15:28;7.90;99.90
13794;DHT22;31160;49.500;7.772;2023-01-09T00:17:54;7.90;99.90
13794;DHT22;31160;49.500;7.772;2023-01-09T00:20:21;7.90;99.90
13794;DHT22;31160;49.500;7.772;2023-01-09T00:22:48;7.90;99.90
13794;DHT22;31160;49.500;7.772;2023-01-09T00:25:15;7.90;99.90
13794;DHT22;31160;49.500;7.772;2023-01-09T00:27:41;8.10;99.90
13794;DHT22;31160;49.500;7.772;2023-01-09T00:30:09;8.10;99.90
13794;DHT22;31160;49.500;7.772;2023-01-09T00:32:36;8.10;99.90
13794;DHT22;31160;49.500;7.772;2023-01-09T00:35:03;8.20;99.90
13794;DHT22;31160;49.500;7.772;2023-01-09T00:37:29;8.10;99.90
13794;DHT22;31160;49.500;7.772;2023-01-09T00:39:56;8.20;99.90
13794;DHT22;31160;49.500;7.772;2023-01-09T00:42:26;8.20;99.90
13794;DHT22;31160;49.500;7.772;2023-01-09T00:44:58;8.20;99.90
13794;DHT22;31160;49.500;7.772;2023-01-09T00:47:32;8.20;99.90
13794;DHT22;31160;49.500;7.772;2023-01-09T00:50:04;8.20;99.90
13794;DHT22;31160;49.500;7.772;2023-01-09T00:52:33;8.10;99.90
13794;DHT22;31160;49.500;7.772;2023-01-09T00:55:03;8.20;99.90
13794;DHT22;31160;49.500;7.772;2023-01-09T00:57:30;8.20;99.90
13794;DHT22;31160;49.500;7.772;2023-01-09T00:59:58;8.20;99.90
13794;DHT22;31160;49.500;7.772;2023-01-09T01:02:25;8.40;99.90
13794;DHT22;31160;49.500;7.772;2023-01-09T01:04:52;8.30;99.90
13794;DHT22;31160;49.500;7.772;2023-01-09T01:07:38;8.40;99.90
13794;DHT22;31160;49.500;7.772;2023-01-09T01:10:16;8.40;99.90
13794;DHT22;31160;49.500;7.772;2023-01-09T01:12:43;8.40;99.90
13794;DHT22;31160;49.500;7.772;2023-01-09T01:15:10;8.40;99.90
13794;DHT22;31160;49.500;7.772;2023-01-09T01:17:38;8.40;99.90
13794;DHT22;31160;49.500;7.772;2023-01-09T01:20:08;8.30;99.90
13794;DHT22;31160;49.500;7.772;2023-01-09T01:22:36;8.30;99.90
13794;DHT22;31160;49.500;7.772;2023-01-09T01:25:04;8.20;99.90
13794;DHT22;31160;49.500;7.772;2023-01-09T01:27:30;8.10;99.90
13794;DHT22;31160;49.500;7.772;2023-01-09T01:29:57;8.30;99.90
13794;DHT22;31160;49.500;7.772;2023-01-09T01:32:24;8.20;99.90
13794;DHT22;31160;49.500;7.772;2023-01-09T01:34:50;8.10;99.90
13794;DHT22;31160;49.500;7.772;2023-01-09T01:37:17;8.00;99.90
13794;DHT22;31160;49.500;7.772;2023-01-09T01:39:44;7.90;99.90
13794;DHT22;31160;49.500;7.772;2023-01-09T01:42:12;7.90;99.90
13794;DHT22;31160;49.500;7.772;2023-01-09T01:53:23;7.70;99.90
13794;DHT22;31160;49.500;7.772;2023-01-09T01:57:03;7.80;99.90
13794;DHT22;31160;49.500;7.772;2023-01-09T01:59:23;7.70;99.90
13794;DHT22;31160;49.500;7.772;2023-01-09T02:01:57;7.80;99.90
13794;DHT22;31160;49.500;7.772;2023-01-09T02:04:24;7.80;99.90
13794;DHT22;31160;49.500;7.772;2023-01-09T02:06:53;7.80;99.90
13794;DHT22;31160;49.500;7.772;2023-01-09T02:09:22;7.80;99.90
13794;DHT22;31160;49.500;7.772;2023-01-09T02:11:53;7.80;99.90
13794;DHT22;31160;49.500;7.772;2023-01-09T02:14:25;7.90;99.90
13794;DHT22;31160;49.500;7.772;2023-01-09T02:20:13;7.90;99.90
13794;DHT22;31160;49.500;7.772;2023-01-09T02:23:02;7.90;99.90
13794;DHT22;31160;49.500;7.772;2023-01-09T02:26:11;8.00;99.90
13794;DHT22;31160;49.500;7.772;2023-01-09T02:31:34;7.80;99.90
13794;DHT22;31160;49.500;7.772;2023-01-09T02:37:05;7.70;99.90
13794;DHT22;31160;49.500;7.772;2023-01-09T02:39:44;7.80;99.90
13794;DHT22;31160;49.500;7.772;2023-01-09T02:42:21;7.80;99.90
13794;DHT22;31160;49.500;7.772;2023-01-09T02:44:49;7.80;99.90
13794;DHT22;31160;49.500;7.772;2023-01-09T02:49:50;7.80;99.90
13794;DHT22;31160;49.500;7.772;2023-01-09T02:58:10;7.80;99.90
13794;DHT22;31160;49.500;7.772;2023-01-09T03:00:55;7.80;99.90
13794;DHT22;31160;49.500;7.772;2023-01-09T03:07:06;7.60;99.90
13794;DHT22;31160;49.500;7.772;2023-01-09T03:09:37;7.60;99.90
13794;DHT22;31160;49.500;7.772;2023-01-09T03:12:15;7.70;99.90
13794;DHT22;31160;49.500;7.772;2023-01-09T03:14:47;7.50;99.90
13794;DHT22;31160;49.500;7.772;2023-01-09T03:17:21;7.50;99.90
13794;DHT22;31160;49.500;7.772;2023-01-09T03:19:52;7.50;99.90
13794;DHT22;31160;49.500;7.772;2023-01-09T03:22:19;7.60;99.90
13794;DHT22;31160;49.500;7.772;2023-01-09T03:24:46;7.50;99.90
13794;DHT22;31160;49.500;7.772;2023-01-09T03:27:13;7.60;99.90
13794;DHT22;31160;49.500;7.772;2023-01-09T03:29:40;7.70;99.90
13794;DHT22;31160;49.500;7.772;2023-01-09T03:32:07;7.70;99.90
13794;DHT22;31160;49.500;7.772;2023-01-09T03:34:33;7.70;99.90
13794;DHT22;31160;49.500;7.772;2023-01-09T03:37:00;7.60;99.90
13794;DHT22;31160;49.500;7.772;2023-01-09T03:39:27;7.70;99.90
13794;DHT22;31160;49.500;7.772;2023-01-09T03:41:54;7.60;99.90
13794;DHT22;31160;49.500;7.772;2023-01-09T03:44:20;7.40;99.90
13794;DHT22;31160;49.500;7.772;2023-01-09T03:46:47;7.30;99.90
13794;DHT22;31160;49.500;7.772;2023-01-09T03:49:16;7.40;99.90
13794;DHT22;31160;49.500;7.772;2023-01-09T03:51:43;7.40;99.90
13794;DHT22;31160;49.500;7.772;2023-01-09T03:54:09;7.40;99.90
13794;DHT22;31160;49.500;7.772;2023-01-09T03:56:36;7.40;99.90
13794;DHT22;31160;49.500;7.772;2023-01-09T03:59:03;7.30;99.90
13794;DHT22;31160;49.500;7.772;2023-01-09T04:01:29;7.50;99.90
13794;DHT22;31160;49.500;7.772;2023-01-09T04:03:56;7.50;99.90
13794;DHT22;31160;49.500;7.772;2023-01-09T04:06:23;7.50;99.90
13794;DHT22;31160;49.500;7.772;2023-01-09T04:08:50;7.50;99.90
13794;DHT22;31160;49.500;7.772;2023-01-09T04:11:17;7.50;99.90
13794;DHT22;31160;49.500;7.772;2023-01-09T04:13:44;7.50;99.90
13794;DHT22;31160;49.500;7.772;2023-01-09T04:16:10;7.40;99.90
13794;DHT22;31160;49.500;7.772;2023-01-09T04:18:37;7.40;99.90
13794;DHT22;31160;49.500;7.772;2023-01-09T04:21:04;7.50;99.90
13794;DHT22;31160;49.500;7.772;2023-01-09T04:23:31;7.40;99.90
13794;DHT22;31160;49.500;7.772;2023-01-09T04:25:57;7.30;99.90
13794;DHT22;31160;49.500;7.772;2023-01-09T04:28:24;7.00;99.90
13794;DHT22;31160;49.500;7.772;2023-01-09T04:30:51;7.20;99.90
13794;DHT22;31160;49.500;7.772;2023-01-09T04:33:17;7.20;99.90
13794;DHT22;31160;49.500;7.772;2023-01-09T04:35:44;7.30;99.90
13794;DHT22;31160;49.500;7.772;2023-01-09T04:38:11;7.20;99.90
13794;DHT22;31160;49.500;7.772;2023-01-09T04:40:38;7.00;99.90
13794;DHT22;31160;49.500;7.772;2023-01-09T04:43:04;7.00;99.90
13794;DHT22;31160;49.500;7.772;2023-01-09T04:45:31;7.00;99.90
13794;DHT22;31160;49.500;7.772;2023-01-09T04:47:58;6.90;99.90
13794;DHT22;31160;49.500;7.772;2023-01-09T04:50:25;6.90;99.90
13794;DHT22;31160;49.500;7.772;2023-01-09T04:52:51;7.00;99.90
13794;DHT22;31160;49.500;7.772;2023-01-09T04:55:18;6.80;99.90
13794;DHT22;31160;49.500;7.772;2023-01-09T04:57:45;6.60;99.90
13794;DHT22;31160;49.500;7.772;2023-01-09T05:00:11;6.60;99.90
13794;DHT22;31160;49.500;7.772;2023-01-09T05:02:39;6.50;99.90
13794;DHT22;31160;49.500;7.772;2023-01-09T05:05:07;6.40;99.90
13794;DHT22;31160;49.500;7.772;2023-01-09T05:07:37;6.30;99.90
13794;DHT22;31160;49.500;7.772;2023-01-09T05:10:04;6.30;99.90
13794;DHT22;31160;49.500;7.772;2023-01-09T05:12:31;6.30;99.90
13794;DHT22;31160;49.500;7.772;2023-01-09T05:15:00;6.20;99.90
13794;DHT22;31160;49.500;7.772;2023-01-09T05:17:26;6.10;99.90
13794;DHT22;31160;49.500;7.772;2023-01-09T05:19:53;6.10;99.90
13794;DHT22;31160;49.500;7.772;2023-01-09T05:22:20;6.10;99.90
13794;DHT22;31160;49.500;7.772;2023-01-09T05:24:47;6.20;99.90
13794;DHT22;31160;49.500;7.772;2023-01-09T05:27:13;6.40;99.90
13794;DHT22;31160;49.500;7.772;2023-01-09T05:29:40;6.40;99.90
13794;DHT22;31160;49.500;7.772;2023-01-09T05:32:07;6.50;99.90
13794;DHT22;31160;49.500;7.772;2023-01-09T05:34:33;6.50;99.90
13794;DHT22;31160;49.500;7.772;2023-01-09T05:37:00;6.60;99.90
13794;DHT22;31160;49.500;7.772;2023-01-09T05:39:27;6.60;99.90
13794;DHT22;31160;49.500;7.772;2023-01-09T05:41:54;6.60;99.90
13794;DHT22;31160;49.500;7.772;2023-01-09T05:44:20;6.60;99.90
13794;DHT22;31160;49.500;7.772;2023-01-09T05:46:47;6.60;99.90
13794;DHT22;31160;49.500;7.772;2023-01-09T05:49:14;6.60;99.90
13794;DHT22;31160;49.500;7.772;2023-01-09T05:51:40;6.40;99.90
13794;DHT22;31160;49.500;7.772;2023-01-09T05:54:07;6.50;99.90
13794;DHT22;31160;49.500;7.772;2023-01-09T05:56:34;6.50;99.90
13794;DHT22;31160;49.500;7.772;2023-01-09T05:59:00;6.50;99.90
13794;DHT22;31160;49.500;7.772;2023-01-09T06:01:27;6.40;99.90
13794;DHT22;31160;49.500;7.772;2023-01-09T06:03:54;6.40;99.90
13794;DHT22;31160;49.500;7.772;2023-01-09T06:06:21;6.50;99.90
13794;DHT22;31160;49.500;7.772;2023-01-09T06:08:49;6.30;99.90
13794;DHT22;31160;49.500;7.772;2023-01-09T06:11:16;6.30;99.90
13794;DHT22;31160;49.500;7.772;2023-01-09T06:13:42;6.30;99.90
13794;DHT22;31160;49.500;7.772;2023-01-09T06:16:09;6.40;99.90
13794;DHT22;31160;49.500;7.772;2023-01-09T06:18:36;6.30;99.90
13794;DHT22;31160;49.500;7.772;2023-01-09T06:21:03;6.40;99.90
13794;DHT22;31160;49.500;7.772;2023-01-09T06:23:29;6.40;99.90
13794;DHT22;31160;49.500;7.772;2023-01-09T06:25:56;6.40;99.90
13794;DHT22;31160;49.500;7.772;2023-01-09T06:28:23;6.40;99.90
13794;DHT22;31160;49.500;7.772;2023-01-09T06:30:51;6.50;99.90
13794;DHT22;31160;49.500;7.772;2023-01-09T06:33:18;6.50;99.90
13794;DHT22;31160;49.500;7.772;2023-01-09T06:35:45;6.50;99.90
13794;DHT22;31160;49.500;7.772;2023-01-09T06:38:12;6.50;99.90
13794;DHT22;31160;49.500;7.772;2023-01-09T06:40:38;6.50;99.90
13794;DHT22;31160;49.500;7.772;2023-01-09T06:43:05;6.60;99.90
13794;DHT22;31160;49.500;7.772;2023-01-09T06:45:32;6.40;99.90
13794;DHT22;31160;49.500;7.772;2023-01-09T06:47:59;6.30;99.90
13794;DHT22;31160;49.500;7.772;2023-01-09T06:50:26;6.40;99.90
13794;DHT22;31160;49.500;7.772;2023-01-09T06:52:53;6.40;99.90
13794;DHT22;31160;49.500;7.772;2023-01-09T06:55:19;6.50;99.90
13794;DHT22;31160;49.500;7.772;2023-01-09T06:57:46;6.60;99.90
13794;DHT22;31160;49.500;7.772;2023-01-09T07:00:13;6.70;99.90
13794;DHT22;31160;49.500;7.772;2023-01-09T07:02:40;6.70;99.90
13794;DHT22;31160;49.500;7.772;2023-01-09T07:05:07;6.60;99.90
13794;DHT22;31160;49.500;7.772;2023-01-09T07:07:34;6.60;99.90
13794;DHT22;31160;49.500;7.772;2023-01-09T07:10:00;6.40;99.90
13794;DHT22;31160;49.500;7.772;2023-01-09T07:12:27;6.60;99.90
13794;DHT22;31160;49.500;7.772;2023-01-09T07:14:54;6.60;99.90
13794;DHT22;31160;49.500;7.772;2023-01-09T07:17:23;6.70;99.90
13794;DHT22;31160;49.500;7.772;2023-01-09T07:19:50;6.60;99.90
13794;DHT22;31160;49.500;7.772;2023-01-09T07:22:17;6.60;99.90
13794;DHT22;31160;49.500;7.772;2023-01-09T07:24:43;6.50;99.90
13794;DHT22;31160;49.500;7.772;2023-01-09T07:27:10;6.50;99.90
13794;DHT22;31160;49.500;7.772;2023-01-09T07:29:37;6.40;99.90
13794;DHT22;31160;49.500;7.772;2023-01-09T07:32:04;6.40;99.90
13794;DHT22;31160;49.500;7.772;2023-01-09T07:34:30;6.30;99.90
13794;DHT22;31160;49.500;7.772;2023-01-09T07:36:57;6.30;99.90
13794;DHT22;31160;49.500;7.772;2023-01-09T07:39:25;6.40;99.90
13794;DHT22;31160;49.500;7.772;2023-01-09T07:41:52;6.30;99.90
13794;DHT22;31160;49.500;7.772;2023-01-09T07:44:19;6.30;99.90
13794;DHT22;31160;49.500;7.772;2023-01-09T07:46:46;6.20;99.90
13794;DHT22;31160;49.500;7.772;2023-01-09T07:49:13;6.30;99.90
13794;DHT22;31160;49.500;7.772;2023-01-09T07:51:39;6.40;99.90
13794;DHT22;31160;49.500;7.772;2023-01-09T07:54:09;6.40;99.90
13794;DHT22;31160;49.500;7.772;2023-01-09T07:56:37;6.40;99.90
13794;DHT22;31160;49.500;7.772;2023-01-09T07:59:04;6.50;99.90
13794;DHT22;31160;49.500;7.772;2023-01-09T08:01:31;6.40;99.90
13794;DHT22;31160;49.500;7.772;2023-01-09T08:03:58;6.30;99.90
13794;DHT22;31160;49.500;7.772;2023-01-09T08:06:24;6.30;99.90
13794;DHT22;31160;49.500;7.772;2023-01-09T08:08:51;6.30;99.90
13794;DHT22;31160;49.500;7.772;2023-01-09T08:11:18;6.40;99.90
13794;DHT22;31160;49.500;7.772;2023-01-09T08:13:44;6.50;99.90
13794;DHT22;31160;49.500;7.772;2023-01-09T08:16:11;6.40;99.90
13794;DHT22;31160;49.500;7.772;2023-01-09T08:18:38;6.40;99.90
13794;DHT22;31160;49.500;7.772;2023-01-09T08:21:05;6.50;99.90
13794;DHT22;31160;49.500;7.772;2023-01-09T08:23:31;6.60;99.90
13794;DHT22;31160;49.500;7.772;2023-01-09T08:25:58;6.70;99.90
13794;DHT22;31160;49.500;7.772;2023-01-09T08:28:25;6.60;99.90
13794;DHT22;31160;49.500;7.772;2023-01-09T08:30:51;6.60;99.90
13794;DHT22;31160;49.500;7.772;2023-01-09T08:33:18;6.50;99.90
13794;DHT22;31160;49.500;7.772;2023-01-09T08:35:45;6.60;99.90
13794;DHT22;31160;49.500;7.772;2023-01-09T08:38:12;6.60;99.90
13794;DHT22;31160;49.500;7.772;2023-01-09T08:40:38;6.70;99.90
13794;DHT22;31160;49.500;7.772;2023-01-09T08:43:05;6.60;99.90
13794;DHT22;31160;49.500;7.772;2023-01-09T08:45:50;6.70;99.90
13794;DHT22;31160;49.500;7.772;2023-01-09T08:48:49;6.70;99.90
13794;DHT22;31160;49.500;7.772;2023-01-09T08:51:16;6.80;99.90
13794;DHT22;31160;49.500;7.772;2023-01-09T08:53:43;6.80;99.90
13794;DHT22;31160;49.500;7.772;2023-01-09T08:56:09;6.80;99.90
13794;DHT22;31160;49.500;7.772;2023-01-09T08:58:37;6.90;99.90
13794;DHT22;31160;49.500;7.772;2023-01-09T09:01:05;6.80;99.90
13794;DHT22;31160;49.500;7.772;2023-01-09T09:03:32;6.70;99.90
13794;DHT22;31160;49.500;7.772;2023-01-09T09:05:58;6.60;99.90
13794;DHT22;31160;49.500;7.772;2023-01-09T09:08:25;6.80;99.90
13794;DHT22;31160;49.500;7.772;2023-01-09T09:10:52;6.80;99.90
13794;DHT22;31160;49.500;7.772;2023-01-09T09:13:18;6.80;99.90
13794;DHT22;31160;49.500;7.772;2023-01-09T09:15:45;6.80;99.90
13794;DHT22;31160;49.500;7.772;2023-01-09T09:18:12;6.70;99.90
13794;DHT22;31160;49.500;7.772;2023-01-09T09:20:39;6.80;99.90
13794;DHT22;31160;49.500;7.772;2023-01-09T09:23:05;6.80;99.90
13794;DHT22;31160;49.500;7.772;2023-01-09T09:25:34;6.70;99.90
13794;DHT22;31160;49.500;7.772;2023-01-09T09:28:01;6.80;99.90
13794;DHT22;31160;49.500;7.772;2023-01-09T09:30:27;6.80;99.90
13794;DHT22;31160;49.500;7.772;2023-01-09T09:32:54;6.70;99.90
13794;DHT22;31160;49.500;7.772;2023-01-09T09:35:21;6.80;99.90
13794;DHT22;31160;49.500;7.772;2023-01-09T09:37:59;6.80;99.90
13794;DHT22;31160;49.500;7.772;2023-01-09T09:41:05;6.80;99.90
13794;DHT22;31160;49.500;7.772;2023-01-09T09:47:03;7.00;99.90
13794;DHT22;31160;49.500;7.772;2023-01-09T09:55:18;6.90;99.90
13794;DHT22;31160;49.500;7.772;2023-01-09T09:57:46;6.90;99.90
13794;DHT22;31160;49.500;7.772;2023-01-09T10:00:17;6.90;99.90
13794;DHT22;31160;49.500;7.772;2023-01-09T10:02:50;7.00;99.90
13794;DHT22;31160;49.500;7.772;2023-01-09T10:05:24;7.20;99.90
13794;DHT22;31160;49.500;7.772;2023-01-09T10:07:52;7.10;99.90
13794;DHT22;31160;49.500;7.772;2023-01-09T10:10:35;7.20;99.90
13794;DHT22;31160;49.500;7.772;2023-01-09T10:13:03;7.20;99.90
13794;DHT22;31160;49.500;7.772;2023-01-09T10:27:27;7.30;99.90
13794;DHT22;31160;49.500;7.772;2023-01-09T10:30:24;7.40;99.90
13794;DHT22;31160;49.500;7.772;2023-01-09T10:33:13;7.50;99.90
13794;DHT22;31160;49.500;7.772;2023-01-09T10:35:46;7.50;99.90
13794;DHT22;31160;49.500;7.772;2023-01-09T10:38:21;7.30;99.90
13794;DHT22;31160;49.500;7.772;2023-01-09T10:41:14;7.40;99.90
13794;DHT22;31160;49.500;7.772;2023-01-09T10:43:47;7.20;99.90
13794;DHT22;31160;49.500;7.772;2023-01-09T10:46:24;7.20;99.90
13794;DHT22;31160;49.500;7.772;2023-01-09T10:48:57;7.20;99.90
13794;DHT22;31160;49.500;7.772;2023-01-09T10:51:33;7.20;99.90
13794;DHT22;31160;49.500;7.772;2023-01-09T10:54:03;7.10;99.90
13794;DHT22;31160;49.500;7.772;2023-01-09T10:56:36;7.10;99.90
13794;DHT22;31160;49.500;7.772;2023-01-09T10:59:07;7.20;99.90
13794;DHT22;31160;49.500;7.772;2023-01-09T11:01:37;7.20;99.90
13794;DHT22;31160;49.500;7.772;2023-01-09T11:04:31;7.30;99.90
13794;DHT22;31160;49.500;7.772;2023-01-09T11:07:05;7.50;99.90
13794;DHT22;31160;49.500;7.772;2023-01-09T11:09:57;7.40;99.90
13794;DHT22;31160;49.500;7.772;2023-01-09T11:12:30;7.40;99.90
13794;DHT22;31160;49.500;7.772;2023-01-09T11:17:42;7.50;99.90
13794;DHT22;31160;49.500;7.772;2023-01-09T11:20:19;7.80;99.90
13794;DHT22;31160;49.500;7.772;2023-01-09T11:22:50;7.80;99.90
13794;DHT22;31160;49.500;7.772;2023-01-09T11:25:20;7.80;99.90
13794;DHT22;31160;49.500;7.772;2023-01-09T11:30:33;7.80;99.90
13794;DHT22;31160;49.500;7.772;2023-01-09T11:33:14;7.70;99.90
13794;DHT22;31160;49.500;7.772;2023-01-09T11:36:01;7.60;99.90
13794;DHT22;31160;49.500;7.772;2023-01-09T11:38:32;7.30;99.90
13794;DHT22;31160;49.500;7.772;2023-01-09T11:41:18;7.40;99.90
13794;DHT22;31160;49.500;7.772;2023-01-09T11:43:48;7.40;99.90
13794;DHT22;31160;49.500;7.772;2023-01-09T11:46:39;7.60;99.90
13794;DHT22;31160;49.500;7.772;2023-01-09T11:51:41;7.40;99.90
13794;DHT22;31160;49.500;7.772;2023-01-09T11:54:27;7.50;99.90
13794;DHT22;31160;49.500;7.772;2023-01-09T11:56:55;7.80;99.90
13794;DHT22;31160;49.500;7.772;2023-01-09T11:59:25;7.70;99.90
13794;DHT22;31160;49.500;7.772;2023-01-09T12:02:11;7.80;99.90
13794;DHT22;31160;49.500;7.772;2023-01-09T12:08:14;7.80;99.90
13794;DHT22;31160;49.500;7.772;2023-01-09T12:13:59;7.70;99.90
13794;DHT22;31160;49.500;7.772;2023-01-09T12:21:57;7.80;99.90
13794;DHT22;31160;49.500;7.772;2023-01-09T12:27:24;7.70;99.90
13794;DHT22;31160;49.500;7.772;2023-01-09T12:30:35;8.10;99.90
13794;DHT22;31160;49.500;7.772;2023-01-09T12:36:25;8.20;99.90
13794;DHT22;31160;49.500;7.772;2023-01-09T12:42:21;8.00;99.90
13794;DHT22;31160;49.500;7.772;2023-01-09T12:45:00;7.90;99.90
13794;DHT22;31160;49.500;7.772;2023-01-09T12:47:44;8.00;99.90
13794;DHT22;31160;49.500;7.772;2023-01-09T12:50:32;8.00;99.90
13794;DHT22;31160;49.500;7.772;2023-01-09T12:53:22;7.90;99.90
13794;DHT22;31160;49.500;7.772;2023-01-09T12:56:05;7.90;99.90
13794;DHT22;31160;49.500;7.772;2023-01-09T12:58:53;7.90;99.90
13794;DHT22;31160;49.500;7.772;2023-01-09T13:01:28;8.10;99.90
13794;DHT22;31160;49.500;7.772;2023-01-09T13:04:11;8.10;99.90
13794;DHT22;31160;49.500;7.772;2023-01-09T13:06:43;8.40;99.90
13794;DHT22;31160;49.500;7.772;2023-01-09T13:11:46;8.00;99.90
13794;DHT22;31160;49.500;7.772;2023-01-09T13:14:21;7.80;99.90
13794;DHT22;31160;49.500;7.772;2023-01-09T13:16:51;7.80;99.90
13794;DHT22;31160;49.500;7.772;2023-01-09T13:19:26;8.00;99.90
13794;DHT22;31160;49.500;7.772;2023-01-09T13:21:55;7.90;99.90
13794;DHT22;31160;49.500;7.772;2023-01-09T13:26:53;8.30;99.90
13794;DHT22;31160;49.500;7.772;2023-01-09T13:29:25;7.90;99.90
13794;DHT22;31160;49.500;7.772;2023-01-09T13:32:16;7.90;99.90
13794;DHT22;31160;49.500;7.772;2023-01-09T13:34:50;7.90;99.90
13794;DHT22;31160;49.500;7.772;2023-01-09T13:37:26;7.80;99.90
13794;DHT22;31160;49.500;7.772;2023-01-09T13:40:02;7.60;99.90
13794;DHT22;31160;49.500;7.772;2023-01-09T13:42:29;7.60;99.90
13794;DHT22;31160;49.500;7.772;2023-01-09T13:45:22;7.60;99.90
13794;DHT22;31160;49.500;7.772;2023-01-09T13:48:23;7.60;99.90
13794;DHT22;31160;49.500;7.772;2023-01-09T13:50:51;7.70;99.90
13794;DHT22;31160;49.500;7.772;2023-01-09T13:56:04;7.90;99.90
13794;DHT22;31160;49.500;7.772;2023-01-09T14:06:35;7.40;99.90
13794;DHT22;31160;49.500;7.772;2023-01-09T14:09:18;7.60;99.90
13794;DHT22;31160;49.500;7.772;2023-01-09T14:11:46;7.60;99.90
13794;DHT22;31160;49.500;7.772;2023-01-09T14:14:24;7.70;99.90
13794;DHT22;31160;49.500;7.772;2023-01-09T14:16:55;7.80;99.90
13794;DHT22;31160;49.500;7.772;2023-01-09T14:19:30;7.60;99.90
13794;DHT22;31160;49.500;7.772;2023-01-09T14:21:58;7.70;99.90
13794;DHT22;31160;49.500;7.772;2023-01-09T14:24:46;7.80;99.90
13794;DHT22;31160;49.500;7.772;2023-01-09T14:35:58;8.00;99.90
13794;DHT22;31160;49.500;7.772;2023-01-09T14:38:29;7.90;99.90
13794;DHT22;31160;49.500;7.772;2023-01-09T14:44:05;7.50;99.90
13794;DHT22;31160;49.500;7.772;2023-01-09T14:46:37;7.50;99.90
13794;DHT22;31160;49.500;7.772;2023-01-09T14:54:51;7.00;99.90
13794;DHT22;31160;49.500;7.772;2023-01-09T14:57:32;6.90;99.90
13794;DHT22;31160;49.500;7.772;2023-01-09T15:02:38;6.80;99.90
13794;DHT22;31160;49.500;7.772;2023-01-09T15:05:19;6.80;99.90
13794;DHT22;31160;49.500;7.772;2023-01-09T15:07:54;6.60;99.90
13794;DHT22;31160;49.500;7.772;2023-01-09T15:10:28;6.50;99.90
13794;DHT22;31160;49.500;7.772;2023-01-09T15:12:58;6.60;99.90
13794;DHT22;31160;49.500;7.772;2023-01-09T15:15:26;6.60;99.90
13794;DHT22;31160;49.500;7.772;2023-01-09T15:17:55;6.60;99.90
13794;DHT22;31160;49.500;7.772;2023-01-09T15:20:26;6.80;99.90
13794;DHT22;31160;49.500;7.772;2023-01-09T15:22:54;6.70;99.90
13794;DHT22;31160;49.500;7.772;2023-01-09T15:25:25;6.60;99.90
13794;DHT22;31160;49.500;7.772;2023-01-09T15:28:23;6.50;99.90
13794;DHT22;31160;49.500;7.772;2023-01-09T15:33:27;6.60;99.90
13794;DHT22;31160;49.500;7.772;2023-01-09T15:35:54;6.50;99.90
13794;DHT22;31160;49.500;7.772;2023-01-09T15:38:27;6.60;99.90
13794;DHT22;31160;49.500;7.772;2023-01-09T15:40:59;6.60;99.90
13794;DHT22;31160;49.500;7.772;2023-01-09T15:43:28;6.70;99.90
13794;DHT22;31160;49.500;7.772;2023-01-09T15:45:56;6.70;99.90
13794;DHT22;31160;49.500;7.772;2023-01-09T15:48:26;6.70;99.90
13794;DHT22;31160;49.500;7.772;2023-01-09T15:53:25;6.70;99.90
13794;DHT22;31160;49.500;7.772;2023-01-09T15:58:39;6.80;99.90
13794;DHT22;31160;49.500;7.772;2023-01-09T16:01:37;6.60;99.90
13794;DHT22;31160;49.500;7.772;2023-01-09T16:06:40;6.60;99.90
13794;DHT22;31160;49.500;7.772;2023-01-09T16:09:27;6.40;99.90
13794;DHT22;31160;49.500;7.772;2023-01-09T16:11:59;6.40;99.90
13794;DHT22;31160;49.500;7.772;2023-01-09T16:14:36;6.50;99.90
13794;DHT22;31160;49.500;7.772;2023-01-09T16:17:06;6.40;99.90
13794;DHT22;31160;49.500;7.772;2023-01-09T16:19:46;6.40;99.90
13794;DHT22;31160;49.500;7.772;2023-01-09T16:22:27;6.30;99.90
13794;DHT22;31160;49.500;7.772;2023-01-09T16:24:57;6.30;99.90
13794;DHT22;31160;49.500;7.772;2023-01-09T16:27:26;6.30;99.90
13794;DHT22;31160;49.500;7.772;2023-01-09T16:29:55;6.30;99.90
13794;DHT22;31160;49.500;7.772;2023-01-09T16:32:43;6.40;99.90
13794;DHT22;31160;49.500;7.772;2023-01-09T16:35:17;6.20;99.90
13794;DHT22;31160;49.500;7.772;2023-01-09T16:37:45;6.30;99.90
13794;DHT22;31160;49.500;7.772;2023-01-09T16:42:39;6.20;99.90
13794;DHT22;31160;49.500;7.772;2023-01-09T16:45:29;6.20;99.90
13794;DHT22;31160;49.500;7.772;2023-01-09T16:47:56;6.20;99.90
13794;DHT22;31160;49.500;7.772;2023-01-09T16:50:24;6.10;99.90
13794;DHT22;31160;49.500;7.772;2023-01-09T16:52:51;6.20;99.90
13794;DHT22;31160;49.500;7.772;2023-01-09T16:55:17;6.30;99.90
13794;DHT22;31160;49.500;7.772;2023-01-09T16:57:44;6.40;99.90
13794;DHT22;31160;49.500;7.772;2023-01-09T17:00:16;6.30;99.90
13794;DHT22;31160;49.500;7.772;2023-01-09T17:02:43;6.30;99.90
13794;DHT22;31160;49.500;7.772;2023-01-09T17:05:10;6.30;99.90
13794;DHT22;31160;49.500;7.772;2023-01-09T17:07:37;6.20;99.90
13794;DHT22;31160;49.500;7.772;2023-01-09T17:10:04;6.10;99.90
13794;DHT22;31160;49.500;7.772;2023-01-09T17:12:31;6.10;99.90
13794;DHT22;31160;49.500;7.772;2023-01-09T17:14:58;6.10;99.90
13794;DHT22;31160;49.500;7.772;2023-01-09T17:17:26;6.10;99.90
13794;DHT22;31160;49.500;7.772;2023-01-09T17:19:53;6.20;99.90
13794;DHT22;31160;49.500;7.772;2023-01-09T17:22:20;6.20;99.90
13794;DHT22;31160;49.500;7.772;2023-01-09T17:24:46;6.30;99.90
13794;DHT22;31160;49.500;7.772;2023-01-09T17:27:36;6.10;99.90
13794;DHT22;31160;49.500;7.772;2023-01-09T17:30:22;6.10;99.90
13794;DHT22;31160;49.500;7.772;2023-01-09T17:32:48;6.00;99.90
13794;DHT22;31160;49.500;7.772;2023-01-09T17:35:15;6.10;99.90
13794;DHT22;31160;49.500;7.772;2023-01-09T17:37:43;6.20;99.90
13794;DHT22;31160;49.500;7.772;2023-01-09T17:42:42;6.20;99.90
13794;DHT22;31160;49.500;7.772;2023-01-09T17:45:09;6.10;99.90
13794;DHT22;31160;49.500;7.772;2023-01-09T17:47:36;6.10;99.90
13794;DHT22;31160;49.500;7.772;2023-01-09T17:50:03;6.10;99.90
13794;DHT22;31160;49.500;7.772;2023-01-09T17:52:30;6.00;99.90
13794;DHT22;31160;49.500;7.772;2023-01-09T17:54:58;5.90;99.90
13794;DHT22;31160;49.500;7.772;2023-01-09T17:57:31;5.90;99.90
13794;DHT22;31160;49.500;7.772;2023-01-09T17:59:58;5.90;99.90
13794;DHT22;31160;49.500;7.772;2023-01-09T18:02:24;5.90;99.90
13794;DHT22;31160;49.500;7.772;2023-01-09T18:04:51;5.80;99.90
13794;DHT22;31160;49.500;7.772;2023-01-09T18:07:18;6.00;99.90
13794;DHT22;31160;49.500;7.772;2023-01-09T18:09:46;6.10;99.90
13794;DHT22;31160;49.500;7.772;2023-01-09T18:12:13;6.20;99.90
13794;DHT22;31160;49.500;7.772;2023-01-09T18:14:40;6.20;99.90
13794;DHT22;31160;49.500;7.772;2023-01-09T18:17:08;6.30;99.90
13794;DHT22;31160;49.500;7.772;2023-01-09T18:19:37;6.30;99.90